Have a Safe July 4th! 

Flight Track Log - Related Links

Times and Time Zones

All times are in EDT time to prevent confusion due to time zone crossing. See the CTL13 flight status page for this flight to view local times or setup timezone preferences in your user account.

Time Position Orientation Groundspeed Altitude Reporting Facility
EDT Latitude Longitude Course Direction KTS MPH feet Rate Location/Type
Wed 06:41:30 PM 41.5294 -81.6731 22° Northeast 119 137 1,000  Level Cleveland Center
Wed 06:42:55 PM 41.5736 -81.6489 22° Northeast 133 153 2,100 395 Climbing Cleveland Center
Wed 06:44:02 PM 41.6128 -81.6747 334° Northwest 181 208 2,000 365 Descending Cleveland Center
Wed 06:44:50 PM 41.6228 -81.7164 288° West 150 173 2,800 826 Climbing Cleveland Center
Wed 06:45:51 PM 41.6244 -81.7719 272° West 142 163 3,500 639 Climbing Cleveland Center
Wed 06:46:52 PM 41.6197 -81.8219 263° West 142 163 4,100 520 Climbing Cleveland Center
Wed 06:47:58 PM 41.6128 -81.8800 261° West 144 166 4,600 496 Climbing Cleveland Center
Wed 06:48:53 PM 41.6061 -81.9272 259° West 142 163 5,100 492 Climbing Cleveland Center
Wed 06:50:00 PM 41.5950 -81.9881 256° West 149 171 5,600 446 Climbing Cleveland Center
Wed 06:50:54 PM 41.5819 -82.0294 247° West 144 166 6,000 275 Climbing Cleveland Center
Wed 06:51:49 PM 41.5625 -82.0706 238° Southwest 153 176 6,100 52 Climbing Cleveland Center
Wed 06:52:50 PM 41.5389 -82.1228 239° Southwest 155 178 6,100  Level Cleveland Center
Wed 06:53:51 PM 41.5175 -82.1750 241° Southwest 150 173 6,100 -347 Level Cleveland Center
Wed 06:54:51 PM 41.4981 -82.2244 242° Southwest 156 180 5,400 -756 Descending Cleveland Center
Wed 06:55:58 PM 41.4697 -82.2903 240° Southwest 181 208 4,500 -609 Descending Cleveland Center
Wed 06:56:59 PM 41.4439 -82.3450 238° Southwest 175 201 4,100 -26 Descending Cleveland Center
Wed 06:58:00 PM 41.4195 -82.3909 235° Southwest  Level FlightAware Approximate
Wed 07:05:00 PM 41.2592 -82.7147 240° Southwest  Level FlightAware Approximate
Wed 07:06:00 PM 41.2382 -82.7623 240° Southwest  Level FlightAware Approximate
Wed 07:07:00 PM 41.2173 -82.8100 240° Southwest  Level FlightAware Approximate
Wed 07:08:00 PM 41.1963 -82.8575 240° Southwest  Level FlightAware Approximate
Wed 07:09:00 PM 41.1753 -82.9051 240° Southwest  Level FlightAware Approximate
Wed 07:10:00 PM 41.1543 -82.9526 240° Southwest  Level FlightAware Approximate
Wed 07:11:00 PM 41.1333 -83.0001 240° Southwest  Level FlightAware Approximate
Wed 07:12:00 PM 41.1123 -83.0476 240° Southwest  Level FlightAware Approximate
Wed 07:13:00 PM 41.0913 -83.0951 240° Southwest  Level FlightAware Approximate
Wed 07:14:00 PM 41.0703 -83.1426 240° Southwest  Level FlightAware Approximate
Wed 07:14:56 PM 41.0422 -83.2578 239° Southwest 161 185 4,000  Level Indianapolis Center
Wed 07:15:00 PM 41.0493 -83.1900 240° Southwest  Level FlightAware Approximate
Wed 07:15:58 PM 41.0192 -83.3092 239° Southwest 161 185 4,000  Level Indianapolis Center
Wed 07:16:00 PM 41.0282 -83.2374 240° Southwest  Level FlightAware Approximate
Wed 07:17:00 PM 41.0071 -83.2848 239° Southwest  Level FlightAware Approximate
Wed 07:17:00 PM 40.9958 -83.3603 239° Southwest 160 184 4,000  Level Indianapolis Center
Wed 07:18:00 PM 40.9861 -83.3321 239° Southwest  Level FlightAware Approximate
Wed 07:18:02 PM 40.9689 -83.4194 239° Southwest 160 184 4,000  Level Indianapolis Center
Wed 07:19:00 PM 40.9650 -83.3794 239° Southwest  Level FlightAware Approximate
Wed 07:19:04 PM 40.9447 -83.4706 238° Southwest 161 185 4,000  Level Indianapolis Center
Wed 07:20:00 PM 40.9438 -83.4267 239° Southwest  Level FlightAware Approximate
Wed 07:20:06 PM 40.9206 -83.5250 240° Southwest 164 189 4,000  Level Indianapolis Center
Wed 07:21:07 PM 40.8978 -83.5764 240° Southwest 162 186 4,000  Level Indianapolis Center
Wed 07:22:09 PM 40.8728 -83.6264 237° Southwest 162 186 4,000  Level Indianapolis Center
Wed 07:23:11 PM 40.8489 -83.6761 238° Southwest 160 184 4,000  Level Indianapolis Center
Wed 07:24:13 PM 40.8253 -83.7267 238° Southwest 159 183 4,000 -48 Level Indianapolis Center
Wed 07:25:15 PM 40.8014 -83.7783 239° Southwest 161 185 3,900  Descending Indianapolis Center
Wed 07:26:17 PM 40.7772 -83.8281 237° Southwest 161 185 4,000 48 Climbing Indianapolis Center
Wed 07:27:19 PM 40.7494 -83.8867 238° Southwest 161 185 4,000  Level Indianapolis Center
Wed 07:28:21 PM 40.7322 -83.9414 247° West 163 188 4,000  Level Indianapolis Center
Wed 07:29:22 PM 40.7200 -84.0022 255° West 168 193 4,000  Level Indianapolis Center
Wed 07:30:24 PM 40.7142 -84.0636 263° West 169 194 4,000  Level Indianapolis Center
Wed 07:31:26 PM 40.7094 -84.1247 264° West 168 193 4,000  Level Indianapolis Center
Wed 07:32:28 PM 40.7039 -84.1925 264° West 168 193 4,000  Level Indianapolis Center
Wed 07:34:00 PM 40.7008 -84.2774 267° West  Level FlightAware Approximate
Wed 07:39:17 PM 40.5828 -84.5439 241° Southwest 104 120 4,000  Level Chicago Center
Wed 07:40:19 PM 40.5611 -84.5978 242° Southwest 160 184 4,000  Level Chicago Center
Wed 07:41:00 PM 40.5627 -84.6169 241° Southwest  Level FlightAware Approximate
Wed 07:41:21 PM 40.5389 -84.6614 245° Southwest 160 184 4,000  Level Chicago Center
Wed 07:42:00 PM 40.5424 -84.6653 241° Southwest  Level FlightAware Approximate
Wed 07:42:23 PM 40.5183 -84.7128 242° Southwest 161 185 4,000  Level Chicago Center
Wed 07:43:00 PM 40.5222 -84.7137 241° Southwest  Level FlightAware Approximate
Wed 07:43:25 PM 40.4997 -84.7656 245° Southwest 159 183 4,000  Level Chicago Center
Wed 07:44:00 PM 40.5019 -84.7621 241° Southwest  Level FlightAware Approximate
Wed 07:44:27 PM 40.4794 -84.8217 245° Southwest 161 185 4,000  Level Chicago Center
Wed 07:45:29 PM 40.4608 -84.8750 245° Southwest 163 188 4,000  Level Chicago Center
Wed 07:46:31 PM 40.4397 -84.9317 244° Southwest 166 191 4,000  Level Chicago Center
Wed 07:47:33 PM 40.4161 -84.9978 245° Southwest 168 193 4,000  Level Chicago Center
Wed 07:48:35 PM 40.3969 -85.0500 244° Southwest 164 189 4,000  Level Chicago Center
Wed 07:49:37 PM 40.3753 -85.1028 242° Southwest 164 189 4,000  Level Chicago Center
Wed 07:50:39 PM 40.3539 -85.1536 241° Southwest 162 186 4,000  Level Chicago Center
Wed 07:51:42 PM 40.3297 -85.2014 236° Southwest 160 184 4,000  Level Chicago Center
Wed 07:52:40 PM 40.3078 -85.2550 242° Southwest 161 185 4,000  Level Indianapolis Center
Wed 07:53:41 PM 40.2844 -85.3047 238° Southwest 161 185 4,000  Level Indianapolis Center
Wed 07:54:43 PM 40.2611 -85.3553 239° Southwest 162 186 4,000  Level Indianapolis Center
Wed 07:55:45 PM 40.2339 -85.4161 240° Southwest 161 185 4,000  Level Indianapolis Center
Wed 07:56:46 PM 40.2111 -85.4669 240° Southwest 162 186 4,000  Level Indianapolis Center
Wed 07:57:48 PM 40.1858 -85.5231 239° Southwest 163 188 4,000  Level Indianapolis Center
Wed 07:58:50 PM 40.1644 -85.5747 242° Southwest 163 188 4,000  Level Indianapolis Center
Wed 07:59:52 PM 40.1439 -85.6208 240° Southwest 163 188 4,000  Level Indianapolis Center
Wed 08:00:53 PM 40.1203 -85.6700 238° Southwest 162 186 4,000  Level Indianapolis Center
Wed 08:01:55 PM 40.0969 -85.7189 238° Southwest 161 185 4,000  Level Indianapolis Center
Wed 08:02:57 PM 40.0692 -85.7794 239° Southwest 161 185 4,000  Level Indianapolis Center
Wed 08:03:58 PM 40.0464 -85.8294 239° Southwest 161 185 4,000 -49 Level Indianapolis Center
Wed 08:05:00 PM 40.0228 -85.8783 238° Southwest 161 185 3,900 -339 Descending Indianapolis Center
Wed 08:06:02 PM 39.9992 -85.9289 239° Southwest 162 186 3,300 -435 Descending Indianapolis Center
Wed 08:07:04 PM 39.9714 -85.9889 239° Southwest 164 189 3,000 -290 Descending Indianapolis Center

Login

Don't have an account? Register now (free) for customized features, flight alerts, and more!